sensor_id;sensor_type;location;lat;lon;timestamp;temperature;humidity
76537;DHT22;65381;51.254;15.592;2023-05-19T00:00:11;8.10;55.20
76537;DHT22;65381;51.254;15.592;2023-05-19T00:03:02;8.10;55.30
76537;DHT22;65381;51.254;15.592;2023-05-19T00:05:30;8.10;55.30
76537;DHT22;65381;51.254;15.592;2023-05-19T00:07:59;8.10;55.30
76537;DHT22;65381;51.254;15.592;2023-05-19T00:10:29;8.10;55.40
76537;DHT22;65381;51.254;15.592;2023-05-19T00:12:58;8.00;55.30
76537;DHT22;65381;51.254;15.592;2023-05-19T00:15:26;8.00;55.40
76537;DHT22;65381;51.254;15.592;2023-05-19T00:17:54;8.00;55.70
76537;DHT22;65381;51.254;15.592;2023-05-19T00:20:23;8.00;56.00
76537;DHT22;65381;51.254;15.592;2023-05-19T00:22:51;8.00;56.40
76537;DHT22;65381;51.254;15.592;2023-05-19T00:25:19;7.90;56.70
76537;DHT22;65381;51.254;15.592;2023-05-19T00:27:47;7.80;56.80
76537;DHT22;65381;51.254;15.592;2023-05-19T00:30:15;7.80;56.90
76537;DHT22;65381;51.254;15.592;2023-05-19T00:32:43;7.80;56.90
76537;DHT22;65381;51.254;15.592;2023-05-19T00:35:12;7.80;57.00
76537;DHT22;65381;51.254;15.592;2023-05-19T00:37:40;7.80;57.00
76537;DHT22;65381;51.254;15.592;2023-05-19T00:40:09;7.80;57.00
76537;DHT22;65381;51.254;15.592;2023-05-19T00:42:37;7.70;57.00
76537;DHT22;65381;51.254;15.592;2023-05-19T00:45:07;7.60;57.10
76537;DHT22;65381;51.254;15.592;2023-05-19T00:47:35;7.50;57.10
76537;DHT22;65381;51.254;15.592;2023-05-19T00:50:03;7.50;57.20
76537;DHT22;65381;51.254;15.592;2023-05-19T00:52:31;7.50;57.30
76537;DHT22;65381;51.254;15.592;2023-05-19T00:55:00;7.40;57.40
76537;DHT22;65381;51.254;15.592;2023-05-19T00:57:27;7.40;57.40
76537;DHT22;65381;51.254;15.592;2023-05-19T00:59:56;7.40;57.40
76537;DHT22;65381;51.254;15.592;2023-05-19T01:02:26;7.30;57.50
76537;DHT22;65381;51.254;15.592;2023-05-19T01:04:56;7.20;57.60
76537;DHT22;65381;51.254;15.592;2023-05-19T01:07:27;7.20;57.70
76537;DHT22;65381;51.254;15.592;2023-05-19T01:09:55;7.20;58.00
76537;DHT22;65381;51.254;15.592;2023-05-19T01:12:24;7.20;58.00
76537;DHT22;65381;51.254;15.592;2023-05-19T01:14:54;7.20;58.00
76537;DHT22;65381;51.254;15.592;2023-05-19T01:17:29;7.30;58.10
76537;DHT22;65381;51.254;15.592;2023-05-19T01:20:15;7.30;58.00
76537;DHT22;65381;51.254;15.592;2023-05-19T01:31:22;7.30;58.20
76537;DHT22;65381;51.254;15.592;2023-05-19T01:33:52;7.30;58.30
76537;DHT22;65381;51.254;15.592;2023-05-19T01:36:22;7.30;58.40
76537;DHT22;65381;51.254;15.592;2023-05-19T01:38:55;7.20;58.70
76537;DHT22;65381;51.254;15.592;2023-05-19T01:41:25;7.20;58.90
76537;DHT22;65381;51.254;15.592;2023-05-19T01:43:55;7.20;59.00
76537;DHT22;65381;51.254;15.592;2023-05-19T01:46:24;7.20;59.00
76537;DHT22;65381;51.254;15.592;2023-05-19T01:48:54;7.20;59.10
76537;DHT22;65381;51.254;15.592;2023-05-19T01:51:23;7.20;59.20
76537;DHT22;65381;51.254;15.592;2023-05-19T01:53:50;7.20;59.30
76537;DHT22;65381;51.254;15.592;2023-05-19T01:56:30;7.20;59.40
76537;DHT22;65381;51.254;15.592;2023-05-19T02:02:15;7.20;59.60
76537;DHT22;65381;51.254;15.592;2023-05-19T02:04:52;7.20;59.50
76537;DHT22;65381;51.254;15.592;2023-05-19T02:07:40;7.20;59.60
76537;DHT22;65381;51.254;15.592;2023-05-19T02:10:21;7.20;59.70
76537;DHT22;65381;51.254;15.592;2023-05-19T02:12:52;7.20;59.70
76537;DHT22;65381;51.254;15.592;2023-05-19T02:15:24;7.20;59.70
76537;DHT22;65381;51.254;15.592;2023-05-19T02:17:54;7.20;59.80
76537;DHT22;65381;51.254;15.592;2023-05-19T02:20:24;7.20;60.00
76537;DHT22;65381;51.254;15.592;2023-05-19T02:22:53;7.20;60.20
76537;DHT22;65381;51.254;15.592;2023-05-19T02:25:20;7.20;60.50
76537;DHT22;65381;51.254;15.592;2023-05-19T02:27:51;7.20;60.60
76537;DHT22;65381;51.254;15.592;2023-05-19T02:30:18;7.20;60.70
76537;DHT22;65381;51.254;15.592;2023-05-19T02:32:47;7.20;60.70
76537;DHT22;65381;51.254;15.592;2023-05-19T02:35:15;7.20;60.70
76537;DHT22;65381;51.254;15.592;2023-05-19T02:37:44;7.20;60.80
76537;DHT22;65381;51.254;15.592;2023-05-19T02:40:13;7.20;60.80
76537;DHT22;65381;51.254;15.592;2023-05-19T02:42:42;7.20;60.90
76537;DHT22;65381;51.254;15.592;2023-05-19T02:45:10;7.20;60.80
76537;DHT22;65381;51.254;15.592;2023-05-19T02:47:40;7.20;60.70
76537;DHT22;65381;51.254;15.592;2023-05-19T02:50:08;7.10;60.70
76537;DHT22;65381;51.254;15.592;2023-05-19T02:52:36;7.10;60.90
76537;DHT22;65381;51.254;15.592;2023-05-19T02:55:05;7.00;60.90
76537;DHT22;65381;51.254;15.592;2023-05-19T02:57:34;7.00;61.20
76537;DHT22;65381;51.254;15.592;2023-05-19T03:00:02;7.00;61.10
76537;DHT22;65381;51.254;15.592;2023-05-19T03:02:31;7.00;61.20
76537;DHT22;65381;51.254;15.592;2023-05-19T03:05:00;7.00;61.10
76537;DHT22;65381;51.254;15.592;2023-05-19T03:07:30;7.00;61.20
76537;DHT22;65381;51.254;15.592;2023-05-19T03:10:00;7.00;61.30
76537;DHT22;65381;51.254;15.592;2023-05-19T03:12:32;7.00;61.30
76537;DHT22;65381;51.254;15.592;2023-05-19T03:15:02;6.90;61.40
76537;DHT22;65381;51.254;15.592;2023-05-19T03:17:30;6.90;61.50
76537;DHT22;65381;51.254;15.592;2023-05-19T03:20:00;6.90;61.50
76537;DHT22;65381;51.254;15.592;2023-05-19T03:22:29;6.90;61.60
76537;DHT22;65381;51.254;15.592;2023-05-19T03:24:57;6.90;61.70
76537;DHT22;65381;51.254;15.592;2023-05-19T03:27:26;6.90;61.70
76537;DHT22;65381;51.254;15.592;2023-05-19T03:29:54;6.90;61.80
76537;DHT22;65381;51.254;15.592;2023-05-19T03:32:23;6.90;61.70
76537;DHT22;65381;51.254;15.592;2023-05-19T03:34:52;6.90;61.80
76537;DHT22;65381;51.254;15.592;2023-05-19T03:37:20;7.00;62.00
76537;DHT22;65381;51.254;15.592;2023-05-19T03:39:48;7.00;61.90
76537;DHT22;65381;51.254;15.592;2023-05-19T03:42:16;7.00;61.90
76537;DHT22;65381;51.254;15.592;2023-05-19T03:44:44;7.10;61.90
76537;DHT22;65381;51.254;15.592;2023-05-19T03:47:13;7.20;61.90
76537;DHT22;65381;51.254;15.592;2023-05-19T03:50:01;7.20;61.90
76537;DHT22;65381;51.254;15.592;2023-05-19T03:52:42;7.20;62.00
76537;DHT22;65381;51.254;15.592;2023-05-19T03:55:27;7.20;62.00
76537;DHT22;65381;51.254;15.592;2023-05-19T03:57:56;7.20;62.10
76537;DHT22;65381;51.254;15.592;2023-05-19T04:00:24;7.40;62.10
76537;DHT22;65381;51.254;15.592;2023-05-19T04:02:53;7.40;62.20
76537;DHT22;65381;51.254;15.592;2023-05-19T04:05:21;7.50;62.20
76537;DHT22;65381;51.254;15.592;2023-05-19T04:07:49;7.50;62.20
76537;DHT22;65381;51.254;15.592;2023-05-19T04:10:18;7.50;62.30
76537;DHT22;65381;51.254;15.592;2023-05-19T04:12:47;7.60;62.40
76537;DHT22;65381;51.254;15.592;2023-05-19T04:15:15;7.60;62.50
76537;DHT22;65381;51.254;15.592;2023-05-19T04:17:44;7.70;62.50
76537;DHT22;65381;51.254;15.592;2023-05-19T04:20:12;7.80;62.40
76537;DHT22;65381;51.254;15.592;2023-05-19T04:22:41;7.80;62.40
76537;DHT22;65381;51.254;15.592;2023-05-19T04:25:09;7.80;62.40
76537;DHT22;65381;51.254;15.592;2023-05-19T04:27:38;7.80;62.50
76537;DHT22;65381;51.254;15.592;2023-05-19T04:30:06;7.90;62.60
76537;DHT22;65381;51.254;15.592;2023-05-19T04:32:35;7.90;62.60
76537;DHT22;65381;51.254;15.592;2023-05-19T04:35:05;8.00;62.70
76537;DHT22;65381;51.254;15.592;2023-05-19T04:37:33;8.10;62.70
76537;DHT22;65381;51.254;15.592;2023-05-19T04:40:06;8.10;62.80
76537;DHT22;65381;51.254;15.592;2023-05-19T04:42:38;8.20;62.90
76537;DHT22;65381;51.254;15.592;2023-05-19T04:45:12;8.30;63.00
76537;DHT22;65381;51.254;15.592;2023-05-19T04:47:45;8.40;63.10
76537;DHT22;65381;51.254;15.592;2023-05-19T04:50:14;8.60;63.20
76537;DHT22;65381;51.254;15.592;2023-05-19T04:52:44;8.70;63.20
76537;DHT22;65381;51.254;15.592;2023-05-19T04:55:13;8.90;63.10
76537;DHT22;65381;51.254;15.592;2023-05-19T04:57:42;9.00;63.20
76537;DHT22;65381;51.254;15.592;2023-05-19T05:00:11;9.10;63.30
76537;DHT22;65381;51.254;15.592;2023-05-19T05:02:52;9.20;63.30
76537;DHT22;65381;51.254;15.592;2023-05-19T05:05:26;9.20;63.40
76537;DHT22;65381;51.254;15.592;2023-05-19T05:07:55;9.20;63.50
76537;DHT22;65381;51.254;15.592;2023-05-19T05:10:27;9.40;63.80
76537;DHT22;65381;51.254;15.592;2023-05-19T05:12:56;9.30;63.70
76537;DHT22;65381;51.254;15.592;2023-05-19T05:15:24;9.20;63.80
76537;DHT22;65381;51.254;15.592;2023-05-19T05:17:57;9.20;63.90
76537;DHT22;65381;51.254;15.592;2023-05-19T05:20:26;9.40;63.90
76537;DHT22;65381;51.254;15.592;2023-05-19T05:22:54;9.40;64.00
76537;DHT22;65381;51.254;15.592;2023-05-19T05:25:26;9.40;64.00
76537;DHT22;65381;51.254;15.592;2023-05-19T05:27:56;9.40;64.10
76537;DHT22;65381;51.254;15.592;2023-05-19T05:30:25;9.40;64.30
76537;DHT22;65381;51.254;15.592;2023-05-19T05:32:55;9.50;64.30
76537;DHT22;65381;51.254;15.592;2023-05-19T05:35:30;9.50;64.50
76537;DHT22;65381;51.254;15.592;2023-05-19T05:37:59;9.60;64.50
76537;DHT22;65381;51.254;15.592;2023-05-19T05:40:28;9.70;64.60
76537;DHT22;65381;51.254;15.592;2023-05-19T05:42:57;9.80;64.60
76537;DHT22;65381;51.254;15.592;2023-05-19T05:45:31;10.00;64.70
76537;DHT22;65381;51.254;15.592;2023-05-19T05:48:01;10.10;64.80
76537;DHT22;65381;51.254;15.592;2023-05-19T05:50:30;10.30;64.90
76537;DHT22;65381;51.254;15.592;2023-05-19T05:53:00;10.60;64.90
76537;DHT22;65381;51.254;15.592;2023-05-19T05:55:29;10.90;64.80
76537;DHT22;65381;51.254;15.592;2023-05-19T05:58:00;11.30;64.70
76537;DHT22;65381;51.254;15.592;2023-05-19T06:00:28;11.70;64.70
76537;DHT22;65381;51.254;15.592;2023-05-19T06:02:57;12.20;64.40
76537;DHT22;65381;51.254;15.592;2023-05-19T06:05:26;12.70;64.30
76537;DHT22;65381;51.254;15.592;2023-05-19T06:07:56;13.30;64.10
76537;DHT22;65381;51.254;15.592;2023-05-19T06:10:27;13.80;63.70
76537;DHT22;65381;51.254;15.592;2023-05-19T06:12:55;14.20;63.10
76537;DHT22;65381;51.254;15.592;2023-05-19T06:15:24;14.10;62.80
76537;DHT22;65381;51.254;15.592;2023-05-19T06:18:06;13.90;62.90
76537;DHT22;65381;51.254;15.592;2023-05-19T06:20:34;13.70;63.10
76537;DHT22;65381;51.254;15.592;2023-05-19T06:23:03;13.60;63.20
76537;DHT22;65381;51.254;15.592;2023-05-19T06:25:31;13.50;63.30
76537;DHT22;65381;51.254;15.592;2023-05-19T06:28:00;13.40;63.50
76537;DHT22;65381;51.254;15.592;2023-05-19T06:30:28;13.50;63.70
76537;DHT22;65381;51.254;15.592;2023-05-19T06:33:16;13.90;63.60
76537;DHT22;65381;51.254;15.592;2023-05-19T06:35:44;14.00;63.10
76537;DHT22;65381;51.254;15.592;2023-05-19T06:38:14;14.00;63.00
76537;DHT22;65381;51.254;15.592;2023-05-19T06:40:44;13.90;63.20
76537;DHT22;65381;51.254;15.592;2023-05-19T06:43:14;14.00;63.00
76537;DHT22;65381;51.254;15.592;2023-05-19T06:45:53;14.00;62.90
76537;DHT22;65381;51.254;15.592;2023-05-19T06:48:24;14.00;62.80
76537;DHT22;65381;51.254;15.592;2023-05-19T06:50:53;14.00;62.70
76537;DHT22;65381;51.254;15.592;2023-05-19T06:53:21;13.90;62.70
76537;DHT22;65381;51.254;15.592;2023-05-19T06:55:51;13.90;62.80
76537;DHT22;65381;51.254;15.592;2023-05-19T06:58:30;13.80;62.90
76537;DHT22;65381;51.254;15.592;2023-05-19T07:01:00;13.90;62.80
76537;DHT22;65381;51.254;15.592;2023-05-19T07:03:34;13.90;62.70
76537;DHT22;65381;51.254;15.592;2023-05-19T07:06:03;14.00;62.60
76537;DHT22;65381;51.254;15.592;2023-05-19T07:08:34;14.20;62.50
76537;DHT22;65381;51.254;15.592;2023-05-19T07:11:05;14.40;62.30
76537;DHT22;65381;51.254;15.592;2023-05-19T07:13:34;14.50;61.80
76537;DHT22;65381;51.254;15.592;2023-05-19T07:16:03;14.30;61.50
76537;DHT22;65381;51.254;15.592;2023-05-19T07:18:33;14.00;61.50
76537;DHT22;65381;51.254;15.592;2023-05-19T07:21:01;13.60;61.70
76537;DHT22;65381;51.254;15.592;2023-05-19T07:23:31;13.40;61.90
76537;DHT22;65381;51.254;15.592;2023-05-19T07:25:59;13.20;62.00
76537;DHT22;65381;51.254;15.592;2023-05-19T07:28:27;13.00;62.20
76537;DHT22;65381;51.254;15.592;2023-05-19T07:30:55;12.90;62.20
76537;DHT22;65381;51.254;15.592;2023-05-19T07:33:23;12.90;62.30
76537;DHT22;65381;51.254;15.592;2023-05-19T07:35:53;13.00;62.30
76537;DHT22;65381;51.254;15.592;2023-05-19T07:38:22;13.00;62.10
76537;DHT22;65381;51.254;15.592;2023-05-19T07:40:49;13.00;62.00
76537;DHT22;65381;51.254;15.592;2023-05-19T07:43:18;13.00;61.90
76537;DHT22;65381;51.254;15.592;2023-05-19T07:45:46;13.00;62.00
76537;DHT22;65381;51.254;15.592;2023-05-19T07:48:15;13.00;62.00
76537;DHT22;65381;51.254;15.592;2023-05-19T07:50:45;13.10;62.00
76537;DHT22;65381;51.254;15.592;2023-05-19T07:53:14;13.20;61.90
76537;DHT22;65381;51.254;15.592;2023-05-19T07:55:42;13.30;61.80
76537;DHT22;65381;51.254;15.592;2023-05-19T07:58:10;13.30;61.80
76537;DHT22;65381;51.254;15.592;2023-05-19T08:00:38;13.30;61.60
76537;DHT22;65381;51.254;15.592;2023-05-19T08:03:08;13.20;61.80
76537;DHT22;65381;51.254;15.592;2023-05-19T08:05:37;13.20;61.80
76537;DHT22;65381;51.254;15.592;2023-05-19T08:08:06;13.30;61.80
76537;DHT22;65381;51.254;15.592;2023-05-19T08:10:34;13.30;61.70
76537;DHT22;65381;51.254;15.592;2023-05-19T08:13:02;13.30;61.80
76537;DHT22;65381;51.254;15.592;2023-05-19T08:15:31;13.30;61.80
76537;DHT22;65381;51.254;15.592;2023-05-19T08:18:01;13.50;61.70
76537;DHT22;65381;51.254;15.592;2023-05-19T08:20:30;13.50;61.60
76537;DHT22;65381;51.254;15.592;2023-05-19T08:22:59;13.60;61.40
76537;DHT22;65381;51.254;15.592;2023-05-19T08:25:27;13.70;61.30
76537;DHT22;65381;51.254;15.592;2023-05-19T08:27:56;13.90;61.50
76537;DHT22;65381;51.254;15.592;2023-05-19T08:30:25;14.10;61.40
76537;DHT22;65381;51.254;15.592;2023-05-19T08:32:53;14.30;61.10
76537;DHT22;65381;51.254;15.592;2023-05-19T08:35:21;14.40;60.90
76537;DHT22;65381;51.254;15.592;2023-05-19T08:37:49;14.60;60.50
76537;DHT22;65381;51.254;15.592;2023-05-19T08:40:18;14.60;60.30
76537;DHT22;65381;51.254;15.592;2023-05-19T08:42:47;14.60;60.50
76537;DHT22;65381;51.254;15.592;2023-05-19T08:45:16;14.70;60.20
76537;DHT22;65381;51.254;15.592;2023-05-19T08:47:45;14.90;60.20
76537;DHT22;65381;51.254;15.592;2023-05-19T08:50:20;14.90;60.00
76537;DHT22;65381;51.254;15.592;2023-05-19T08:53:03;14.90;60.10
76537;DHT22;65381;51.254;15.592;2023-05-19T08:56:00;14.90;60.10
76537;DHT22;65381;51.254;15.592;2023-05-19T08:58:31;14.90;59.80
76537;DHT22;65381;51.254;15.592;2023-05-19T09:01:01;14.70;59.70
76537;DHT22;65381;51.254;15.592;2023-05-19T09:03:33;14.50;60.00
76537;DHT22;65381;51.254;15.592;2023-05-19T09:06:06;14.40;60.10
76537;DHT22;65381;51.254;15.592;2023-05-19T09:08:41;14.40;60.20
76537;DHT22;65381;51.254;15.592;2023-05-19T09:11:10;14.30;60.10
76537;DHT22;65381;51.254;15.592;2023-05-19T09:13:39;14.20;60.30
76537;DHT22;65381;51.254;15.592;2023-05-19T09:16:07;14.10;60.40
76537;DHT22;65381;51.254;15.592;2023-05-19T09:19:02;14.10;60.60
76537;DHT22;65381;51.254;15.592;2023-05-19T09:21:31;14.20;60.70
76537;DHT22;65381;51.254;15.592;2023-05-19T09:24:04;14.40;60.60
76537;DHT22;65381;51.254;15.592;2023-05-19T09:26:37;14.50;60.50
76537;DHT22;65381;51.254;15.592;2023-05-19T09:29:13;14.70;60.30
76537;DHT22;65381;51.254;15.592;2023-05-19T09:31:54;14.70;60.30
76537;DHT22;65381;51.254;15.592;2023-05-19T09:34:23;14.80;60.40
76537;DHT22;65381;51.254;15.592;2023-05-19T09:36:52;14.90;60.30
76537;DHT22;65381;51.254;15.592;2023-05-19T09:39:22;15.00;60.20
76537;DHT22;65381;51.254;15.592;2023-05-19T09:41:53;15.00;60.00
76537;DHT22;65381;51.254;15.592;2023-05-19T09:44:23;15.20;60.10
76537;DHT22;65381;51.254;15.592;2023-05-19T09:46:51;15.30;60.00
76537;DHT22;65381;51.254;15.592;2023-05-19T09:49:25;15.30;59.70
76537;DHT22;65381;51.254;15.592;2023-05-19T09:51:54;15.10;59.70
76537;DHT22;65381;51.254;15.592;2023-05-19T09:54:25;15.00;60.10
76537;DHT22;65381;51.254;15.592;2023-05-19T09:57:02;14.80;60.00
76537;DHT22;65381;51.254;15.592;2023-05-19T09:59:31;14.60;60.00
76537;DHT22;65381;51.254;15.592;2023-05-19T10:02:00;14.30;60.20
76537;DHT22;65381;51.254;15.592;2023-05-19T10:04:30;14.10;60.50
76537;DHT22;65381;51.254;15.592;2023-05-19T10:06:58;14.00;60.50
76537;DHT22;65381;51.254;15.592;2023-05-19T10:09:28;13.80;60.70
76537;DHT22;65381;51.254;15.592;2023-05-19T10:11:57;13.60;60.90
76537;DHT22;65381;51.254;15.592;2023-05-19T10:14:27;13.50;61.00
76537;DHT22;65381;51.254;15.592;2023-05-19T10:16:57;13.50;61.10
76537;DHT22;65381;51.254;15.592;2023-05-19T10:19:27;13.40;61.10
76537;DHT22;65381;51.254;15.592;2023-05-19T10:21:56;13.20;61.30
76537;DHT22;65381;51.254;15.592;2023-05-19T10:24:25;13.00;61.40
76537;DHT22;65381;51.254;15.592;2023-05-19T10:27:04;12.90;61.60
76537;DHT22;65381;51.254;15.592;2023-05-19T10:29:38;12.80;61.60
76537;DHT22;65381;51.254;15.592;2023-05-19T10:32:10;12.80;61.80
76537;DHT22;65381;51.254;15.592;2023-05-19T10:39:57;12.70;62.00
76537;DHT22;65381;51.254;15.592;2023-05-19T10:42:48;12.70;62.00
76537;DHT22;65381;51.254;15.592;2023-05-19T10:45:23;12.80;62.10
76537;DHT22;65381;51.254;15.592;2023-05-19T10:47:53;12.80;62.20
76537;DHT22;65381;51.254;15.592;2023-05-19T10:50:22;12.90;62.20
76537;DHT22;65381;51.254;15.592;2023-05-19T10:52:55;13.10;62.30
76537;DHT22;65381;51.254;15.592;2023-05-19T10:55:49;13.40;62.20
76537;DHT22;65381;51.254;15.592;2023-05-19T11:01:19;14.20;61.60
76537;DHT22;65381;51.254;15.592;2023-05-19T11:03:53;14.40;61.40
76537;DHT22;65381;51.254;15.592;2023-05-19T11:06:25;14.50;61.20
76537;DHT22;65381;51.254;15.592;2023-05-19T11:08:55;14.60;61.10
76537;DHT22;65381;51.254;15.592;2023-05-19T11:11:24;14.60;61.30
76537;DHT22;65381;51.254;15.592;2023-05-19T11:13:54;14.80;61.40
76537;DHT22;65381;51.254;15.592;2023-05-19T11:16:27;14.90;61.30
76537;DHT22;65381;51.254;15.592;2023-05-19T11:18:58;15.00;61.40
76537;DHT22;65381;51.254;15.592;2023-05-19T11:21:48;15.00;61.20
76537;DHT22;65381;51.254;15.592;2023-05-19T11:24:46;14.90;61.10
76537;DHT22;65381;51.254;15.592;2023-05-19T11:29:51;14.30;61.50
76537;DHT22;65381;51.254;15.592;2023-05-19T11:32:21;14.00;61.50
76537;DHT22;65381;51.254;15.592;2023-05-19T11:34:50;13.80;61.70
76537;DHT22;65381;51.254;15.592;2023-05-19T11:37:18;13.60;61.90
76537;DHT22;65381;51.254;15.592;2023-05-19T11:39:46;13.50;62.10
76537;DHT22;65381;51.254;15.592;2023-05-19T11:42:15;13.50;62.10
76537;DHT22;65381;51.254;15.592;2023-05-19T11:44:47;13.50;62.20
76537;DHT22;65381;51.254;15.592;2023-05-19T11:47:16;13.40;62.20
76537;DHT22;65381;51.254;15.592;2023-05-19T11:49:47;13.40;62.20
76537;DHT22;65381;51.254;15.592;2023-05-19T11:52:15;13.50;62.20
76537;DHT22;65381;51.254;15.592;2023-05-19T11:54:47;13.50;62.20
76537;DHT22;65381;51.254;15.592;2023-05-19T11:57:16;13.60;62.10
76537;DHT22;65381;51.254;15.592;2023-05-19T11:59:44;13.70;61.90
76537;DHT22;65381;51.254;15.592;2023-05-19T12:02:20;13.70;62.00
76537;DHT22;65381;51.254;15.592;2023-05-19T12:04:48;13.60;62.00
76537;DHT22;65381;51.254;15.592;2023-05-19T12:07:21;13.60;62.00
76537;DHT22;65381;51.254;15.592;2023-05-19T12:09:50;13.50;62.10
76537;DHT22;65381;51.254;15.592;2023-05-19T12:12:21;13.50;62.10
76537;DHT22;65381;51.254;15.592;2023-05-19T12:14:50;13.50;62.20
76537;DHT22;65381;51.254;15.592;2023-05-19T12:17:20;13.60;62.20
76537;DHT22;65381;51.254;15.592;2023-05-19T12:19:50;13.60;62.20
76537;DHT22;65381;51.254;15.592;2023-05-19T12:22:19;13.70;62.10
76537;DHT22;65381;51.254;15.592;2023-05-19T12:24:48;13.90;62.00
76537;DHT22;65381;51.254;15.592;2023-05-19T12:27:19;14.00;62.00
76537;DHT22;65381;51.254;15.592;2023-05-19T12:29:52;14.10;61.90
76537;DHT22;65381;51.254;15.592;2023-05-19T12:32:25;14.20;61.80
76537;DHT22;65381;51.254;15.592;2023-05-19T12:34:57;14.30;61.90
76537;DHT22;65381;51.254;15.592;2023-05-19T12:37:27;14.40;61.80
76537;DHT22;65381;51.254;15.592;2023-05-19T12:40:00;14.50;61.70
76537;DHT22;65381;51.254;15.592;2023-05-19T12:42:30;14.70;61.60
76537;DHT22;65381;51.254;15.592;2023-05-19T12:45:00;14.80;61.50
76537;DHT22;65381;51.254;15.592;2023-05-19T12:47:33;14.90;61.50
76537;DHT22;65381;51.254;15.592;2023-05-19T12:50:04;14.90;61.50
76537;DHT22;65381;51.254;15.592;2023-05-19T12:52:47;15.00;61.50
76537;DHT22;65381;51.254;15.592;2023-05-19T12:55:17;15.00;61.50
76537;DHT22;65381;51.254;15.592;2023-05-19T12:57:50;15.10;61.50
76537;DHT22;65381;51.254;15.592;2023-05-19T13:00:21;15.10;61.40
76537;DHT22;65381;51.254;15.592;2023-05-19T13:02:57;15.10;61.50
76537;DHT22;65381;51.254;15.592;2023-05-19T13:05:28;15.20;61.50
76537;DHT22;65381;51.254;15.592;2023-05-19T13:07:59;15.30;61.50
76537;DHT22;65381;51.254;15.592;2023-05-19T13:10:28;15.60;61.40
76537;DHT22;65381;51.254;15.592;2023-05-19T13:12:59;15.80;61.30
76537;DHT22;65381;51.254;15.592;2023-05-19T13:15:28;16.00;61.10
76537;DHT22;65381;51.254;15.592;2023-05-19T13:18:05;16.10;61.00
76537;DHT22;65381;51.254;15.592;2023-05-19T13:20:34;16.50;60.80
76537;DHT22;65381;51.254;15.592;2023-05-19T13:23:03;16.60;60.70
76537;DHT22;65381;51.254;15.592;2023-05-19T13:25:34;16.80;60.70
76537;DHT22;65381;51.254;15.592;2023-05-19T13:28:04;17.00;60.50
76537;DHT22;65381;51.254;15.592;2023-05-19T13:30:34;16.90;59.70
76537;DHT22;65381;51.254;15.592;2023-05-19T13:33:03;16.60;59.70
76537;DHT22;65381;51.254;15.592;2023-05-19T13:35:32;16.40;60.00
76537;DHT22;65381;51.254;15.592;2023-05-19T13:38:10;16.20;60.10
76537;DHT22;65381;51.254;15.592;2023-05-19T13:40:39;16.00;60.20
76537;DHT22;65381;51.254;15.592;2023-05-19T13:43:07;15.80;60.40
76537;DHT22;65381;51.254;15.592;2023-05-19T13:45:36;15.60;60.70
76537;DHT22;65381;51.254;15.592;2023-05-19T13:48:05;15.70;60.80
76537;DHT22;65381;51.254;15.592;2023-05-19T13:50:34;16.00;60.80
76537;DHT22;65381;51.254;15.592;2023-05-19T13:53:02;16.20;60.50
76537;DHT22;65381;51.254;15.592;2023-05-19T13:55:31;16.40;60.20
76537;DHT22;65381;51.254;15.592;2023-05-19T13:57:59;16.40;60.10
76537;DHT22;65381;51.254;15.592;2023-05-19T14:00:28;16.40;59.80
76537;DHT22;65381;51.254;15.592;2023-05-19T14:02:57;16.20;59.80
76537;DHT22;65381;51.254;15.592;2023-05-19T14:05:28;16.20;60.00
76537;DHT22;65381;51.254;15.592;2023-05-19T14:07:59;16.30;60.00
76537;DHT22;65381;51.254;15.592;2023-05-19T14:10:27;16.30;60.00
76537;DHT22;65381;51.254;15.592;2023-05-19T14:12:57;16.40;60.10
76537;DHT22;65381;51.254;15.592;2023-05-19T14:15:29;16.50;60.00
76537;DHT22;65381;51.254;15.592;2023-05-19T14:18:01;16.60;59.70
76537;DHT22;65381;51.254;15.592;2023-05-19T14:20:31;16.50;59.50
76537;DHT22;65381;51.254;15.592;2023-05-19T14:23:00;16.40;59.60
76537;DHT22;65381;51.254;15.592;2023-05-19T14:25:28;16.30;59.40
76537;DHT22;65381;51.254;15.592;2023-05-19T14:27:56;16.00;59.70
76537;DHT22;65381;51.254;15.592;2023-05-19T14:30:24;15.70;59.90
76537;DHT22;65381;51.254;15.592;2023-05-19T14:32:54;15.50;60.10
76537;DHT22;65381;51.254;15.592;2023-05-19T14:35:22;15.40;60.20
76537;DHT22;65381;51.254;15.592;2023-05-19T14:37:51;15.30;60.40
76537;DHT22;65381;51.254;15.592;2023-05-19T14:40:19;15.20;60.40
76537;DHT22;65381;51.254;15.592;2023-05-19T14:42:47;15.00;60.40
76537;DHT22;65381;51.254;15.592;2023-05-19T14:45:17;14.90;60.50
76537;DHT22;65381;51.254;15.592;2023-05-19T14:47:45;14.90;60.60
76537;DHT22;65381;51.254;15.592;2023-05-19T14:50:14;14.90;60.60
76537;DHT22;65381;51.254;15.592;2023-05-19T14:52:42;14.90;60.70
76537;DHT22;65381;51.254;15.592;2023-05-19T14:55:10;15.00;60.60
76537;DHT22;65381;51.254;15.592;2023-05-19T14:57:39;15.10;60.60
76537;DHT22;65381;51.254;15.592;2023-05-19T15:00:10;15.30;60.50
76537;DHT22;65381;51.254;15.592;2023-05-19T15:02:38;15.40;60.40
76537;DHT22;65381;51.254;15.592;2023-05-19T15:05:08;15.40;60.30
76537;DHT22;65381;51.254;15.592;2023-05-19T15:07:36;15.30;60.30
76537;DHT22;65381;51.254;15.592;2023-05-19T15:10:05;15.00;60.50
76537;DHT22;65381;51.254;15.592;2023-05-19T15:12:33;15.00;60.70
76537;DHT22;65381;51.254;15.592;2023-05-19T15:15:01;15.00;60.80
76537;DHT22;65381;51.254;15.592;2023-05-19T15:17:30;15.00;60.80
76537;DHT22;65381;51.254;15.592;2023-05-19T15:19:58;15.00;60.70
76537;DHT22;65381;51.254;15.592;2023-05-19T15:22:28;14.80;60.80
76537;DHT22;65381;51.254;15.592;2023-05-19T15:24:56;14.70;60.90
76537;DHT22;65381;51.254;15.592;2023-05-19T15:27:24;14.60;61.00
76537;DHT22;65381;51.254;15.592;2023-05-19T15:29:52;14.50;61.10
76537;DHT22;65381;51.254;15.592;2023-05-19T15:32:20;14.40;61.20
76537;DHT22;65381;51.254;15.592;2023-05-19T15:34:48;14.30;61.40
76537;DHT22;65381;51.254;15.592;2023-05-19T15:37:16;14.20;61.40
76537;DHT22;65381;51.254;15.592;2023-05-19T15:39:44;14.10;61.50
76537;DHT22;65381;51.254;15.592;2023-05-19T15:42:13;14.10;61.60
76537;DHT22;65381;51.254;15.592;2023-05-19T15:44:41;14.00;61.70
76537;DHT22;65381;51.254;15.592;2023-05-19T15:47:13;14.10;61.60
76537;DHT22;65381;51.254;15.592;2023-05-19T15:49:41;14.20;61.60
76537;DHT22;65381;51.254;15.592;2023-05-19T15:52:09;14.20;61.50
76537;DHT22;65381;51.254;15.592;2023-05-19T15:54:37;14.20;61.50
76537;DHT22;65381;51.254;15.592;2023-05-19T15:57:06;14.10;61.50
76537;DHT22;65381;51.254;15.592;2023-05-19T15:59:34;14.10;61.50
76537;DHT22;65381;51.254;15.592;2023-05-19T16:02:03;14.10;61.50